Time;durP1;ratioP1;P1;durP2;ratioP2;P2;SDS_P1;SDS_P2;PMS_P1;PMS_P2;Temp;Humidity;BMP_temperature;BMP_pressure;BME280_temperature;BME280_humidity;BME280_pressure;Samples;Min_cycle;Max_cycle;Signal;HPM_P1;HPM_P2
2023/05/24 00:01:33;;;;;;;17.63;3.30;;;12.50;99.90;;;;;;5014267;28;20130;-51
2023/05/24 00:03:59;;;;;;;15.50;3.55;;;12.50;99.90;;;;;;5013364;28;20018;-50
2023/05/24 00:06:26;;;;;;;18.13;5.28;;;12.50;99.90;;;;;;5013007;28;20022;-48
2023/05/24 00:08:52;;;;;;;18.27;3.97;;;12.30;99.90;;;;;;5013903;28;20021;-49
2023/05/24 00:11:18;;;;;;;15.82;4.68;;;12.30;99.90;;;;;;5014760;28;20049;-53
2023/05/24 00:13:44;;;;;;;13.73;4.00;;;12.30;99.90;;;;;;5013806;28;20029;-48
2023/05/24 00:16:09;;;;;;;14.48;3.75;;;12.30;99.90;;;;;;5014213;28;20424;-49
2023/05/24 00:18:39;;;;;;;16.15;4.50;;;12.20;99.90;;;;;;5013603;28;20088;-54
2023/05/24 00:21:08;;;;;;;19.05;3.70;;;12.20;99.90;;;;;;5014098;28;20022;-51
2023/05/24 00:23:33;;;;;;;9.40;3.65;;;12.10;99.90;;;;;;5014066;28;20030;-49
2023/05/24 00:26:00;;;;;;;12.63;4.18;;;12.10;99.90;;;;;;5013804;28;20033;-53
2023/05/24 00:28:26;;;;;;;15.77;4.40;;;12.00;99.90;;;;;;5012575;28;20029;-51
2023/05/24 00:30:51;;;;;;;14.38;3.50;;;12.00;99.90;;;;;;5013496;28;20036;-53
2023/05/24 00:33:17;;;;;;;13.55;3.65;;;11.90;99.90;;;;;;5013728;28;20050;-50
2023/05/24 00:35:42;;;;;;;17.60;3.83;;;11.90;99.90;;;;;;5013758;28;20025;-52
2023/05/24 00:38:08;;;;;;;12.85;4.72;;;11.80;99.90;;;;;;5014078;28;20022;-51
2023/05/24 00:40:33;;;;;;;12.35;3.40;;;11.80;99.90;;;;;;5011832;28;20017;-56
2023/05/24 00:42:59;;;;;;;9.45;3.65;;;11.80;99.90;;;;;;5012919;28;20034;-52
2023/05/24 00:45:24;;;;;;;13.70;4.28;;;11.70;99.90;;;;;;5012341;28;20028;-48
2023/05/24 00:47:50;;;;;;;13.82;5.32;;;11.60;99.90;;;;;;5013507;28;20501;-53
2023/05/24 00:50:15;;;;;;;12.52;3.95;;;11.60;99.90;;;;;;5013164;28;20037;-48
2023/05/24 00:52:42;;;;;;;13.05;4.57;;;11.60;99.90;;;;;;5011825;28;20029;-50
2023/05/24 00:55:08;;;;;;;13.73;4.53;;;11.60;99.90;;;;;;5013169;28;20107;-52
2023/05/24 00:57:35;;;;;;;8.25;3.40;;;11.50;99.90;;;;;;5012997;28;20045;-50
2023/05/24 01:00:03;;;;;;;6.95;3.50;;;11.50;99.90;;;;;;5012968;28;20430;-53
2023/05/24 01:02:29;;;;;;;17.65;4.55;;;11.40;99.90;;;;;;5012942;28;20022;-48
2023/05/24 01:04:56;;;;;;;11.13;4.43;;;11.40;99.90;;;;;;5013070;28;20389;-49
2023/05/24 01:07:31;;;;;;;12.88;3.78;;;11.40;99.90;;;;;;5013154;28;20116;-48
2023/05/24 01:10:10;;;;;;;13.52;4.05;;;11.40;99.90;;;;;;5012723;28;20567;-54
2023/05/24 01:12:48;;;;;;;13.40;3.90;;;11.30;99.90;;;;;;5012716;28;20044;-52
2023/05/24 01:15:13;;;;;;;13.20;4.20;;;11.30;99.90;;;;;;5011619;28;20414;-49
2023/05/24 01:18:00;;;;;;;12.57;4.32;;;11.30;99.90;;;;;;5012927;28;20033;-49
2023/05/24 01:20:30;;;;;;;14.73;4.20;;;11.20;99.90;;;;;;5012818;28;20037;-48
2023/05/24 01:23:20;;;;;;;9.80;3.60;;;11.20;99.90;;;;;;5012516;28;20017;-50
2023/05/24 01:26:11;;;;;;;19.35;3.95;;;11.20;99.90;;;;;;5012747;28;20045;-49
2023/05/24 01:28:38;;;;;;;12.07;3.95;;;11.10;99.90;;;;;;5012311;28;20037;-48
2023/05/24 01:31:04;;;;;;;9.38;3.45;;;11.10;99.90;;;;;;5012615;28;20117;-51
2023/05/24 01:33:31;;;;;;;12.77;4.18;;;11.00;99.90;;;;;;5012247;28;20037;-51
2023/05/24 01:35:57;;;;;;;12.85;4.15;;;11.00;99.90;;;;;;5012539;28;20053;-51
2023/05/24 01:38:22;;;;;;;12.35;3.92;;;10.90;99.90;;;;;;5011387;28;20061;-50
2023/05/24 01:40:51;;;;;;;8.40;3.38;;;10.90;99.90;;;;;;5010825;28;20018;-49
2023/05/24 01:43:38;;;;;;;9.82;5.05;;;10.80;99.90;;;;;;5011947;28;20050;-55
2023/05/24 01:46:18;;;;;;;12.27;3.75;;;10.70;99.90;;;;;;5012322;28;20451;-54
2023/05/24 01:49:22;;;;;;;12.52;3.95;;;10.70;99.90;;;;;;5012084;28;20172;-52
2023/05/24 01:52:02;;;;;;;12.52;4.45;;;10.60;99.90;;;;;;5012143;28;20022;-48
2023/05/24 01:54:32;;;;;;;12.05;5.00;;;10.60;99.90;;;;;;5012060;28;20034;-53
2023/05/24 01:57:01;;;;;;;12.13;3.55;;;10.60;99.90;;;;;;5012228;28;20018;-52
2023/05/24 01:59:30;;;;;;;9.02;4.07;;;10.60;99.90;;;;;;5011879;28;20417;-52
2023/05/24 02:01:56;;;;;;;10.63;3.92;;;10.60;99.90;;;;;;5011652;28;20018;-49
2023/05/24 02:04:23;;;;;;;11.82;4.22;;;10.60;99.90;;;;;;5012074;28;20048;-49
2023/05/24 02:06:48;;;;;;;12.88;3.63;;;10.60;99.90;;;;;;5012033;28;20065;-51
2023/05/24 02:09:14;;;;;;;15.13;5.28;;;10.60;99.90;;;;;;5009801;28;20054;-52
2023/05/24 02:11:39;;;;;;;7.70;3.42;;;10.60;99.90;;;;;;5011693;28;20106;-51
2023/05/24 02:14:05;;;;;;;14.95;3.15;;;10.60;99.90;;;;;;5011831;28;20516;-48
2023/05/24 02:16:30;;;;;;;15.35;4.30;;;10.60;99.90;;;;;;5010565;28;20354;-54
2023/05/24 02:18:56;;;;;;;14.73;3.33;;;10.70;99.90;;;;;;5011597;28;20037;-49
2023/05/24 02:21:23;;;;;;;12.52;3.83;;;10.70;99.90;;;;;;5011935;28;20117;-52
2023/05/24 02:23:48;;;;;;;14.60;4.53;;;10.70;99.90;;;;;;5011454;28;20028;-53
2023/05/24 02:26:16;;;;;;;11.35;2.97;;;10.70;99.90;;;;;;5011799;28;20108;-50
2023/05/24 02:28:42;;;;;;;8.13;3.40;;;10.70;99.90;;;;;;5011610;28;20029;-54
2023/05/24 02:31:08;;;;;;;15.48;3.92;;;10.60;99.90;;;;;;5011692;28;20405;-50
2023/05/24 02:33:34;;;;;;;13.70;3.22;;;10.60;99.90;;;;;;5011571;28;20099;-52
2023/05/24 02:36:00;;;;;;;15.88;3.63;;;10.60;99.90;;;;;;5011718;28;20022;-48
2023/05/24 02:38:25;;;;;;;13.02;2.90;;;10.60;99.90;;;;;;5011727;28;20041;-52
2023/05/24 02:40:51;;;;;;;17.15;3.22;;;10.60;99.90;;;;;;5011325;28;20393;-53
2023/05/24 02:43:16;;;;;;;10.65;2.80;;;10.60;99.90;;;;;;5011029;28;20034;-55
2023/05/24 02:45:42;;;;;;;12.05;3.92;;;10.60;99.90;;;;;;5011560;28;20030;-48
2023/05/24 02:48:07;;;;;;;15.77;4.18;;;10.60;99.90;;;;;;5011761;28;20505;-51
2023/05/24 02:50:33;;;;;;;9.68;3.05;;;10.60;99.90;;;;;;5014790;28;20517;-51
2023/05/24 02:52:58;;;;;;;9.65;2.90;;;10.60;99.90;;;;;;5011427;28;20026;-48
2023/05/24 02:55:24;;;;;;;12.68;3.15;;;10.60;99.90;;;;;;5011599;28;20250;-50
2023/05/24 02:57:50;;;;;;;10.75;3.05;;;10.50;99.90;;;;;;5011596;28;20018;-49
2023/05/24 03:00:17;;;;;;;14.55;3.40;;;10.60;99.90;;;;;;5011074;28;20389;-51
2023/05/24 03:02:43;;;;;;;8.93;2.85;;;10.50;99.90;;;;;;5011078;28;20065;-52
2023/05/24 03:05:09;;;;;;;14.85;3.33;;;10.50;99.90;;;;;;5011447;28;20468;-53
2023/05/24 03:07:35;;;;;;;14.10;3.45;;;10.50;99.90;;;;;;5011539;28;20030;-50
2023/05/24 03:10:00;;;;;;;15.32;3.05;;;10.50;99.90;;;;;;5011073;28;20026;-50
2023/05/24 03:12:26;;;;;;;15.35;3.35;;;10.50;99.90;;;;;;5011071;28;20030;-52
2023/05/24 03:14:51;;;;;;;10.65;3.03;;;10.50;99.90;;;;;;5011143;28;20502;-53
2023/05/24 03:17:17;;;;;;;8.70;3.20;;;10.40;99.90;;;;;;5011458;28;20072;-50
2023/05/24 03:19:43;;;;;;;12.55;3.17;;;10.40;99.90;;;;;;5012646;28;20018;-55
2023/05/24 03:22:08;;;;;;;10.43;2.97;;;10.40;99.90;;;;;;5014687;28;20018;-51
2023/05/24 03:24:34;;;;;;;13.52;5.10;;;10.40;99.90;;;;;;5014986;28;20180;-56
2023/05/24 03:26:59;;;;;;;10.90;3.38;;;10.50;99.90;;;;;;5015425;28;20508;-51
2023/05/24 03:29:25;;;;;;;14.27;3.72;;;10.40;99.90;;;;;;5014599;28;20437;-51
2023/05/24 03:31:50;;;;;;;20.15;3.45;;;10.40;99.90;;;;;;5014704;28;20030;-51
2023/05/24 03:34:16;;;;;;;19.08;3.75;;;10.40;99.90;;;;;;5013445;28;20034;-53
2023/05/24 03:36:42;;;;;;;8.82;3.10;;;10.50;99.90;;;;;;5013604;28;20029;-50
2023/05/24 03:39:07;;;;;;;10.38;3.03;;;10.50;99.90;;;;;;5014375;28;20030;-52
2023/05/24 03:41:33;;;;;;;19.10;4.20;;;10.40;99.90;;;;;;5014840;28;20030;-51
2023/05/24 03:43:59;;;;;;;16.27;4.38;;;10.40;99.90;;;;;;5014273;28;20034;-52
2023/05/24 03:46:24;;;;;;;13.70;3.70;;;10.40;99.90;;;;;;5015788;28;20030;-56
2023/05/24 03:48:50;;;;;;;11.82;3.88;;;10.40;99.90;;;;;;5015574;28;20040;-49
2023/05/24 03:51:15;;;;;;;16.63;3.35;;;10.30;99.90;;;;;;5015839;28;20026;-51
2023/05/24 03:53:41;;;;;;;10.68;3.80;;;10.30;99.90;;;;;;5014133;28;20105;-51
2023/05/24 03:56:07;;;;;;;13.32;3.47;;;10.30;99.90;;;;;;5015005;28;20033;-53
2023/05/24 03:58:32;;;;;;;12.65;3.83;;;10.30;99.90;;;;;;5014035;28;20022;-51
2023/05/24 04:00:59;;;;;;;9.27;3.05;;;10.40;99.90;;;;;;5014420;28;20082;-51
2023/05/24 04:03:25;;;;;;;12.20;2.90;;;10.30;99.90;;;;;;5013823;28;20021;-50
2023/05/24 04:05:51;;;;;;;9.38;3.58;;;10.30;99.90;;;;;;5014385;28;20478;-52
2023/05/24 04:08:16;;;;;;;11.18;2.80;;;10.20;99.90;;;;;;5014303;28;20022;-51
2023/05/24 04:10:42;;;;;;;9.10;3.08;;;10.10;99.90;;;;;;5013945;28;20022;-51
2023/05/24 04:13:08;;;;;;;10.40;3.30;;;10.10;99.90;;;;;;5013816;28;20098;-57
2023/05/24 04:15:33;;;;;;;14.90;3.47;;;10.10;99.90;;;;;;5014313;28;20033;-52
2023/05/24 04:17:59;;;;;;;11.20;3.38;;;10.00;99.90;;;;;;5014251;28;20093;-49
2023/05/24 04:20:26;;;;;;;9.38;3.10;;;10.10;99.90;;;;;;5014036;28;20438;-50
2023/05/24 04:22:52;;;;;;;12.70;2.70;;;10.10;99.90;;;;;;5013818;28;20080;-50
2023/05/24 04:25:18;;;;;;;24.48;3.60;;;9.90;99.90;;;;;;5014392;28;20053;-48
2023/05/24 04:27:43;;;;;;;10.80;3.58;;;10.00;99.90;;;;;;5012863;28;20464;-49
2023/05/24 04:30:09;;;;;;;11.45;3.05;;;10.00;99.90;;;;;;5013523;28;20500;-49
2023/05/24 04:32:35;;;;;;;19.45;3.75;;;10.00;99.90;;;;;;5012794;28;20026;-50
2023/05/24 04:35:03;;;;;;;6.75;2.70;;;10.00;99.90;;;;;;5013795;28;20041;-48
2023/05/24 04:37:30;;;;;;;9.35;2.67;;;10.00;99.90;;;;;;5013728;28;20474;-48
2023/05/24 04:39:56;;;;;;;10.77;3.22;;;10.00;99.90;;;;;;5013415;28;20092;-50
2023/05/24 04:42:22;;;;;;;8.60;2.88;;;10.00;99.90;;;;;;5012979;28;20033;-52
2023/05/24 04:44:47;;;;;;;19.20;3.40;;;10.20;99.90;;;;;;5013269;28;20505;-49
2023/05/24 04:47:13;;;;;;;12.30;2.83;;;10.50;99.90;;;;;;5012240;28;20493;-53
2023/05/24 04:49:39;;;;;;;13.32;3.63;;;11.00;99.90;;;;;;5013130;28;20026;-52
2023/05/24 04:52:05;;;;;;;14.50;4.53;;;11.60;99.90;;;;;;5013161;28;20037;-51
2023/05/24 04:54:32;;;;;;;22.45;3.80;;;12.20;99.90;;;;;;5013181;28;20029;-49
2023/05/24 04:56:58;;;;;;;14.98;3.08;;;12.50;99.90;;;;;;5013909;28;20034;-50
2023/05/24 04:59:23;;;;;;;12.10;3.53;;;12.80;99.90;;;;;;5012984;28;20104;-53
2023/05/24 05:01:49;;;;;;;19.23;4.20;;;12.80;99.90;;;;;;5012940;28;20046;-49
2023/05/24 05:04:15;;;;;;;11.48;2.55;;;13.00;99.90;;;;;;5013081;28;20112;-49
2023/05/24 05:06:43;;;;;;;16.48;4.20;;;13.20;99.90;;;;;;5013114;28;20028;-51
2023/05/24 05:09:09;;;;;;;14.18;3.45;;;13.20;99.90;;;;;;5012656;28;20106;-50
2023/05/24 05:11:35;;;;;;;10.32;2.90;;;13.20;99.90;;;;;;5013127;28;20563;-49
2023/05/24 05:14:01;;;;;;;10.20;2.85;;;13.30;99.90;;;;;;5012655;28;20033;-48
2023/05/24 05:16:27;;;;;;;10.70;2.95;;;13.40;99.90;;;;;;5013090;28;20022;-49
2023/05/24 05:18:52;;;;;;;11.75;2.90;;;13.80;99.40;;;;;;5012582;28;20030;-48
2023/05/24 05:21:18;;;;;;;11.25;3.28;;;13.80;99.40;;;;;;5012981;28;20030;-55
2023/05/24 05:23:44;;;;;;;12.63;2.67;;;14.10;99.00;;;;;;5013109;28;20058;-49
2023/05/24 05:26:10;;;;;;;15.23;2.70;;;14.10;99.00;;;;;;5012542;28;20030;-49
2023/05/24 05:28:36;;;;;;;10.20;2.88;;;14.50;98.50;;;;;;5012379;28;20585;-53
2023/05/24 05:31:02;;;;;;;12.93;2.72;;;14.70;97.80;;;;;;5012760;28;20144;-50
2023/05/24 05:33:27;;;;;;;15.60;3.03;;;15.00;97.20;;;;;;5012474;28;20046;-52
2023/05/24 05:35:53;;;;;;;9.63;3.85;;;14.90;96.90;;;;;;5012550;28;20032;-55
2023/05/24 05:38:18;;;;;;;14.20;2.72;;;15.50;97.00;;;;;;5012523;28;20028;-50
2023/05/24 05:40:44;;;;;;;15.70;2.80;;;15.50;95.60;;;;;;5012051;28;20036;-50
2023/05/24 05:43:09;;;;;;;15.10;2.85;;;15.90;95.70;;;;;;5011534;28;20037;-50
2023/05/24 05:45:35;;;;;;;7.10;2.42;;;15.70;95.50;;;;;;5012316;28;20446;-56
2023/05/24 05:48:00;;;;;;;10.73;2.53;;;15.80;95.30;;;;;;5012398;28;20030;-51
2023/05/24 05:50:26;;;;;;;10.13;2.95;;;15.70;95.30;;;;;;5012048;28;20025;-55
2023/05/24 05:52:52;;;;;;;12.27;2.72;;;16.00;95.00;;;;;;5012146;28;20030;-55
2023/05/24 05:55:17;;;;;;;12.48;2.65;;;16.30;94.80;;;;;;5012120;28;20061;-54
2023/05/24 05:57:43;;;;;;;16.67;3.03;;;16.20;94.50;;;;;;5012343;28;20080;-50
2023/05/24 06:00:09;;;;;;;11.80;3.15;;;16.30;94.70;;;;;;5011799;28;20030;-50
2023/05/24 06:02:35;;;;;;;14.27;3.58;;;16.30;94.40;;;;;;5011813;28;20575;-49
2023/05/24 06:05:00;;;;;;;11.38;3.08;;;15.90;94.90;;;;;;5012059;28;20038;-55
2023/05/24 06:07:26;;;;;;;14.70;2.80;;;15.70;94.50;;;;;;5012082;28;20026;-53
2023/05/24 06:09:51;;;;;;;16.80;3.63;;;15.80;95.20;;;;;;5012045;28;20133;-51
2023/05/24 06:12:17;;;;;;;11.23;3.03;;;16.20;94.80;;;;;;5011555;28;20026;-49
2023/05/24 06:14:43;;;;;;;14.23;3.08;;;17.00;93.50;;;;;;5011805;28;20038;-52
2023/05/24 06:17:08;;;;;;;11.18;3.00;;;17.20;93.10;;;;;;5011949;28;20025;-53
2023/05/24 06:19:34;;;;;;;9.32;2.53;;;17.50;93.00;;;;;;5011528;28;20022;-53
2023/05/24 06:22:00;;;;;;;12.25;2.72;;;17.60;92.40;;;;;;5011706;28;20022;-52
2023/05/24 06:24:27;;;;;;;21.85;4.32;;;17.70;92.00;;;;;;5011793;28;20029;-49
2023/05/24 06:26:52;;;;;;;13.18;3.45;;;16.90;92.30;;;;;;5012824;28;20081;-55
2023/05/24 06:29:19;;;;;;;18.85;3.15;;;16.60;92.80;;;;;;5011845;28;20018;-50
2023/05/24 06:31:46;;;;;;;20.20;3.33;;;16.60;92.70;;;;;;5012069;28;20025;-53
2023/05/24 06:34:12;;;;;;;13.35;3.00;;;16.70;93.10;;;;;;5013431;28;20520;-57
2023/05/24 06:36:41;;;;;;;9.65;3.10;;;16.60;92.70;;;;;;5012602;28;20026;-54
2023/05/24 06:39:07;;;;;;;7.43;2.60;;;16.80;93.30;;;;;;5011284;28;20022;-50
2023/05/24 06:41:33;;;;;;;18.75;3.92;;;17.10;92.80;;;;;;5012085;28;20030;-56
2023/05/24 06:43:59;;;;;;;8.80;2.85;;;17.40;91.90;;;;;;5011322;28;20268;-50
2023/05/24 06:46:24;;;;;;;15.65;3.58;;;16.90;92.40;;;;;;5011817;28;20026;-51
2023/05/24 06:48:50;;;;;;;13.82;3.58;;;16.80;92.60;;;;;;5011407;28;20072;-55
2023/05/24 06:51:16;;;;;;;18.08;3.13;;;16.50;92.80;;;;;;5012106;28;20494;-49
2023/05/24 06:53:41;;;;;;;12.10;3.65;;;17.40;92.40;;;;;;5011341;28;20026;-50
2023/05/24 06:56:08;;;;;;;12.40;3.58;;;17.70;91.70;;;;;;5015759;28;20052;-51
2023/05/24 06:58:34;;;;;;;17.58;3.55;;;17.70;91.80;;;;;;5015295;28;20373;-50
2023/05/24 07:01:00;;;;;;;12.05;3.30;;;16.60;92.20;;;;;;5015508;28;20068;-54
2023/05/24 07:03:25;;;;;;;12.23;3.65;;;16.30;92.50;;;;;;5015174;28;20502;-49
2023/05/24 07:05:51;;;;;;;10.82;3.15;;;15.50;93.70;;;;;;5015240;28;20385;-54
2023/05/24 07:08:16;;;;;;;10.35;2.97;;;15.70;93.60;;;;;;5015219;28;20022;-53
2023/05/24 07:10:43;;;;;;;10.50;3.35;;;16.10;93.10;;;;;;5015212;28;20045;-53
2023/05/24 07:13:12;;;;;;;15.57;3.22;;;16.70;92.40;;;;;;5014936;28;20021;-50
2023/05/24 07:15:40;;;;;;;14.73;4.00;;;16.10;93.10;;;;;;5015279;28;20375;-49
2023/05/24 07:18:06;;;;;;;12.93;3.47;;;15.90;93.30;;;;;;5015734;28;20025;-50
2023/05/24 07:20:31;;;;;;;11.55;3.60;;;16.10;93.20;;;;;;5014715;28;20544;-52
2023/05/24 07:22:57;;;;;;;13.45;3.35;;;17.00;92.60;;;;;;5014903;28;20505;-53
2023/05/24 07:25:23;;;;;;;10.73;2.63;;;17.70;91.60;;;;;;5015177;28;20033;-49
2023/05/24 07:27:49;;;;;;;8.43;2.90;;;18.10;90.60;;;;;;5015208;28;20080;-56
2023/05/24 07:30:15;;;;;;;8.50;2.70;;;18.20;90.50;;;;;;5014661;28;20433;-51
2023/05/24 07:32:40;;;;;;;15.55;3.05;;;18.40;90.20;;;;;;5014723;28;20369;-50
2023/05/24 07:35:06;;;;;;;12.85;3.05;;;18.60;89.90;;;;;;5014741;28;20029;-49
2023/05/24 07:37:32;;;;;;;10.85;2.92;;;18.50;89.80;;;;;;5015275;28;20485;-50
2023/05/24 07:39:57;;;;;;;27.38;3.72;;;17.80;90.40;;;;;;5014674;28;20485;-50
2023/05/24 07:42:23;;;;;;;14.63;3.10;;;18.10;90.70;;;;;;5013074;28;20053;-51
2023/05/24 07:44:48;;;;;;;13.77;2.97;;;18.80;88.70;;;;;;5014135;28;20484;-50
2023/05/24 07:47:14;;;;;;;10.10;3.38;;;19.40;89.10;;;;;;5014783;28;20025;-50
2023/05/24 07:49:40;;;;;;;10.02;2.92;;;19.30;88.40;;;;;;5014654;28;20067;-51
2023/05/24 07:52:06;;;;;;;14.48;3.72;;;18.90;87.80;;;;;;5014478;28;20034;-50
2023/05/24 07:54:31;;;;;;;11.45;3.20;;;18.80;88.80;;;;;;5014655;28;20022;-50
2023/05/24 07:56:57;;;;;;;13.80;3.30;;;18.40;89.00;;;;;;5013300;28;20071;-50
2023/05/24 07:59:22;;;;;;;13.02;3.30;;;17.30;90.80;;;;;;5014161;28;20096;-54
2023/05/24 08:01:48;;;;;;;15.93;3.30;;;16.90;91.50;;;;;;5014123;28;20389;-51
2023/05/24 08:04:15;;;;;;;11.85;2.83;;;16.60;91.00;;;;;;5014127;28;20084;-48
2023/05/24 08:06:40;;;;;;;11.20;3.20;;;15.30;91.90;;;;;;5012632;28;20024;-57
2023/05/24 08:09:07;;;;;;;13.45;3.72;;;15.00;92.70;;;;;;5010426;28;20116;-48
2023/05/24 08:11:33;;;;;;;19.33;4.60;;;15.80;92.00;;;;;;5014437;28;20060;-51
2023/05/24 08:13:58;;;;;;;15.63;3.70;;;16.70;91.00;;;;;;5002043;28;20057;-50
2023/05/24 08:16:24;;;;;;;13.23;3.00;;;17.10;91.40;;;;;;4994360;28;20405;-49
2023/05/24 08:18:50;;;;;;;11.35;2.95;;;17.20;90.80;;;;;;5012472;28;20026;-49
2023/05/24 08:21:16;;;;;;;12.40;3.50;;;16.60;88.10;;;;;;5014151;28;20036;-55
2023/05/24 08:23:42;;;;;;;14.63;3.28;;;16.00;90.70;;;;;;5013775;28;20513;-52
2023/05/24 08:26:07;;;;;;;10.65;2.83;;;16.50;91.00;;;;;;5002622;28;20053;-49
2023/05/24 08:28:34;;;;;;;16.35;3.17;;;16.90;90.50;;;;;;5006382;28;20041;-62
2023/05/24 08:30:59;;;;;;;15.00;3.13;;;16.90;89.80;;;;;;5015325;28;20440;-51
2023/05/24 08:33:25;;;;;;;12.63;3.28;;;17.00;90.40;;;;;;5013735;28;20026;-48
2023/05/24 08:35:50;;;;;;;15.10;2.80;;;17.10;90.00;;;;;;5013516;28;20120;-50
2023/05/24 08:38:16;;;;;;;10.90;2.65;;;17.30;90.50;;;;;;4994948;28;20049;-49
2023/05/24 08:40:42;;;;;;;10.95;3.00;;;16.80;91.00;;;;;;5013379;28;20026;-50
2023/05/24 08:43:10;;;;;;;16.98;3.10;;;16.20;90.90;;;;;;5013112;28;20034;-49
2023/05/24 08:45:37;;;;;;;13.85;3.08;;;15.90;92.00;;;;;;5014616;28;20032;-49
2023/05/24 08:48:05;;;;;;;13.77;3.75;;;15.60;92.20;;;;;;5015261;28;20623;-53
2023/05/24 08:50:32;;;;;;;12.98;3.72;;;15.30;92.40;;;;;;5015238;28;20034;-48
2023/05/24 08:52:58;;;;;;;12.52;3.28;;;14.90;93.20;;;;;;5015004;28;20088;-48
2023/05/24 08:55:25;;;;;;;12.30;3.00;;;15.10;93.60;;;;;;5014791;28;20540;-49
2023/05/24 08:57:51;;;;;;;12.93;3.28;;;15.60;93.40;;;;;;5014898;28;20022;-50
2023/05/24 09:00:18;;;;;;;11.45;3.20;;;15.70;92.90;;;;;;5014370;28;20022;-49
2023/05/24 09:02:45;;;;;;;19.92;3.90;;;15.70;92.90;;;;;;5014665;28;20026;-48
2023/05/24 09:05:14;;;;;;;17.23;3.88;;;15.20;93.30;;;;;;5015960;28;20069;-51
2023/05/24 09:07:42;;;;;;;11.70;3.63;;;14.70;94.00;;;;;;5015545;28;20517;-50
2023/05/24 09:10:08;;;;;;;11.85;3.58;;;14.20;94.50;;;;;;5014147;28;20025;-48
2023/05/24 09:12:36;;;;;;;13.43;3.33;;;14.10;94.90;;;;;;5014135;28;20034;-47
2023/05/24 09:15:03;;;;;;;11.23;3.15;;;13.90;95.10;;;;;;5011659;28;20068;-50
2023/05/24 09:17:33;;;;;;;9.50;3.33;;;13.90;95.60;;;;;;4994448;28;20354;-53
2023/05/24 09:19:58;;;;;;;12.50;3.22;;;13.50;96.10;;;;;;5002516;28;20422;-52
2023/05/24 09:22:27;;;;;;;14.25;4.28;;;13.60;96.00;;;;;;5014236;28;20049;-52
2023/05/24 09:25:00;;;;;;;9.90;3.20;;;13.90;96.10;;;;;;5014416;28;20101;-54
2023/05/24 09:27:25;;;;;;;10.18;3.42;;;13.70;96.00;;;;;;5010244;28;20030;-52
2023/05/24 09:29:52;;;;;;;8.57;2.83;;;13.90;95.50;;;;;;5004495;28;20053;-51
2023/05/24 09:32:22;;;;;;;12.10;3.17;;;13.80;95.10;;;;;;5000453;28;20398;-55
2023/05/24 09:34:47;;;;;;;15.18;3.67;;;13.90;95.80;;;;;;5019248;28;20410;-54
2023/05/24 09:37:17;;;;;;;14.07;4.18;;;14.10;96.10;;;;;;5022459;28;20033;-56
2023/05/24 09:39:47;;;;;;;15.38;3.47;;;14.30;94.30;;;;;;5026122;28;20025;-52
2023/05/24 09:42:23;;;;;;;12.68;3.10;;;14.40;95.20;;;;;;5021136;28;20033;-56
2023/05/24 09:45:05;;;;;;;8.90;3.25;;;14.80;95.30;;;;;;5021508;28;20053;-57
2023/05/24 09:47:31;;;;;;;14.25;3.38;;;15.00;94.80;;;;;;5000704;28;20026;-51
2023/05/24 09:50:05;;;;;;;7.75;3.13;;;15.00;94.40;;;;;;4997241;28;20028;-53
2023/05/24 09:52:34;;;;;;;14.13;3.92;;;14.70;94.30;;;;;;4993435;28;20041;-59
2023/05/24 09:55:10;;;;;;;12.52;3.05;;;14.60;94.70;;;;;;4993471;28;20033;-49
2023/05/24 09:57:35;;;;;;;15.50;3.15;;;14.70;95.20;;;;;;4992918;28;20022;-54
2023/05/24 10:00:07;;;;;;;15.25;2.95;;;14.50;94.60;;;;;;5000741;28;20044;-53
2023/05/24 10:02:32;;;;;;;7.32;2.42;;;14.60;94.60;;;;;;4998663;28;20022;-53
2023/05/24 10:05:02;;;;;;;10.50;3.03;;;14.90;95.00;;;;;;4991813;28;20306;-50
2023/05/24 10:07:28;;;;;;;8.85;2.78;;;15.00;93.70;;;;;;5012711;28;20041;-48
2023/05/24 10:09:54;;;;;;;5.28;2.00;;;15.00;92.80;;;;;;5012070;28;20034;-48
2023/05/24 10:12:21;;;;;;;6.28;2.35;;;14.60;92.40;;;;;;5012191;28;20030;-48
2023/05/24 10:14:48;;;;;;;8.90;3.08;;;14.30;92.00;;;;;;5010808;28;20029;-50
2023/05/24 10:17:14;;;;;;;7.10;2.88;;;14.40;92.50;;;;;;5012107;28;20037;-52
2023/05/24 10:19:40;;;;;;;9.48;2.58;;;14.60;92.90;;;;;;4997544;28;20026;-50
2023/05/24 10:22:08;;;;;;;12.05;3.25;;;15.00;92.90;;;;;;4993563;28;20069;-53
2023/05/24 10:24:45;;;;;;;10.20;3.22;;;15.20;92.80;;;;;;5012083;28;20042;-51
2023/05/24 10:27:14;;;;;;;13.60;2.88;;;14.70;92.30;;;;;;5010947;28;20026;-49
2023/05/24 10:29:46;;;;;;;26.95;13.25;;;14.80;93.10;;;;;;5007680;28;20034;-55
2023/05/24 10:32:17;;;;;;;9.15;3.72;;;14.70;93.00;;;;;;5009590;28;20084;-47
2023/05/24 10:34:44;;;;;;;19.35;5.88;;;14.40;92.70;;;;;;5010589;28;20103;-51
2023/05/24 10:37:09;;;;;;;12.02;3.20;;;14.20;93.20;;;;;;5009893;28;20395;-47
2023/05/24 10:39:36;;;;;;;9.32;4.03;;;14.40;94.30;;;;;;5010861;28;20056;-48
2023/05/24 10:42:03;;;;;;;6.47;2.97;;;14.60;94.20;;;;;;5010435;28;20117;-48
2023/05/24 10:44:30;;;;;;;11.90;3.25;;;14.60;92.30;;;;;;5001845;28;20038;-48
2023/05/24 10:47:19;;;;;;;10.98;4.18;;;14.60;93.00;;;;;;5003564;28;20397;-48
2023/05/24 10:49:50;;;;;;;12.45;3.33;;;14.80;93.30;;;;;;5008570;28;20033;-56
2023/05/24 10:52:16;;;;;;;7.90;3.60;;;14.80;93.10;;;;;;5011005;28;20105;-53
2023/05/24 10:55:04;;;;;;;10.23;3.05;;;14.60;92.80;;;;;;5010874;28;20121;-52
2023/05/24 10:57:33;;;;;;;10.35;3.13;;;14.50;92.30;;;;;;5011218;28;20033;-47
2023/05/24 11:00:23;;;;;;;12.65;3.75;;;14.50;93.20;;;;;;5006574;28;20053;-57
2023/05/24 11:03:10;;;;;;;13.85;3.38;;;14.70;93.20;;;;;;5010846;28;20022;-53
2023/05/24 11:05:49;;;;;;;18.67;4.20;;;14.60;92.60;;;;;;5010470;28;20038;-51
2023/05/24 11:08:34;;;;;;;12.07;3.35;;;14.30;92.70;;;;;;5008861;28;20152;-49
2023/05/24 11:11:10;;;;;;;11.73;3.70;;;14.40;94.10;;;;;;5006885;28;20037;-48
2023/05/24 11:13:37;;;;;;;10.55;3.47;;;14.60;93.60;;;;;;5010160;28;20037;-62
2023/05/24 11:16:03;;;;;;;12.13;2.97;;;14.80;93.30;;;;;;5011216;28;20358;-55
2023/05/24 11:18:29;;;;;;;10.55;3.90;;;14.90;92.70;;;;;;5010751;28;20101;-56
2023/05/24 11:20:57;;;;;;;12.93;3.28;;;14.90;92.60;;;;;;5008779;28;20180;-61
2023/05/24 11:23:24;;;;;;;16.63;4.63;;;14.90;91.70;;;;;;5008899;28;20049;-60
2023/05/24 11:25:51;;;;;;;12.05;4.47;;;14.80;92.10;;;;;;5010019;28;20041;-54
2023/05/24 11:28:17;;;;;;;7.18;3.67;;;14.70;92.70;;;;;;5009899;28;20029;-52
2023/05/24 11:30:46;;;;;;;34.33;17.92;;;14.70;93.00;;;;;;5010794;28;20101;-53
2023/05/24 11:33:23;;;;;;;10.82;3.60;;;14.90;93.40;;;;;;5010874;28;20037;-56
2023/05/24 11:35:53;;;;;;;10.27;3.08;;;15.00;92.20;;;;;;5011079;28;20478;-54
2023/05/24 11:38:20;;;;;;;11.40;3.50;;;15.20;93.00;;;;;;5011051;28;20026;-53
2023/05/24 11:40:48;;;;;;;12.20;3.97;;;15.40;93.10;;;;;;5012162;28;20068;-52
2023/05/24 11:43:16;;;;;;;12.40;3.90;;;15.40;92.30;;;;;;5022703;22;20046;-46
2023/05/24 11:45:50;;;;;;;9.85;3.22;;;15.40;92.10;;;;;;4993951;28;20030;-51
2023/05/24 11:48:18;;;;;;;10.88;3.92;;;15.40;92.10;;;;;;4993891;28;20105;-48
2023/05/24 11:50:46;;;;;;;12.73;3.55;;;15.30;92.60;;;;;;4994945;28;20030;-48
2023/05/24 11:53:12;;;;;;;9.30;3.17;;;15.40;92.20;;;;;;4994631;28;20561;-46
2023/05/24 11:55:39;;;;;;;10.40;3.05;;;15.40;92.20;;;;;;4994854;28;20545;-52
2023/05/24 11:58:15;;;;;;;11.95;3.63;;;15.40;92.60;;;;;;4995018;28;20029;-46
2023/05/24 12:00:42;;;;;;;9.95;3.33;;;15.20;92.00;;;;;;4994952;28;20033;-51
2023/05/24 12:03:08;;;;;;;12.65;2.90;;;15.10;92.30;;;;;;4993524;28;20450;-49
2023/05/24 12:05:36;;;;;;;11.45;2.88;;;15.10;91.70;;;;;;4994710;28;20027;-46
2023/05/24 12:08:04;;;;;;;8.95;2.92;;;15.20;92.50;;;;;;4994802;28;20044;-49
2023/05/24 12:10:31;;;;;;;8.93;2.75;;;15.50;92.50;;;;;;4994508;28;20025;-49
2023/05/24 12:12:57;;;;;;;11.25;3.38;;;15.80;92.20;;;;;;4994047;28;20030;-48
2023/05/24 12:15:22;;;;;;;11.65;3.40;;;15.90;90.80;;;;;;4990366;28;20027;-48
2023/05/24 12:17:49;;;;;;;11.98;3.40;;;16.00;90.40;;;;;;4988502;28;20072;-45
2023/05/24 12:20:15;;;;;;;12.10;3.05;;;16.10;91.10;;;;;;4992953;28;20399;-50
2023/05/24 12:22:51;;;;;;;11.20;3.67;;;16.20;91.60;;;;;;4992719;28;20037;-47
2023/05/24 12:25:21;;;;;;;5.03;2.88;;;16.20;90.90;;;;;;4994233;28;20030;-47
2023/05/24 12:27:54;;;;;;;11.65;3.17;;;16.10;90.80;;;;;;4994557;28;20076;-50
2023/05/24 12:30:27;;;;;;;13.10;3.78;;;16.20;90.70;;;;;;4993838;28;20034;-52
2023/05/24 12:32:53;;;;;;;12.15;4.05;;;16.20;90.90;;;;;;4992639;28;20052;-47
2023/05/24 12:35:19;;;;;;;8.38;2.75;;;16.30;91.50;;;;;;4993042;28;20501;-44
2023/05/24 12:37:45;;;;;;;12.10;3.08;;;16.20;91.20;;;;;;4994219;28;20022;-46
2023/05/24 12:40:20;;;;;;;17.25;3.10;;;16.30;91.40;;;;;;4994410;28;20522;-47